Campus, New Mexico
Current Conditions -  °F | °C
As of 9:55 AM on Friday 28 Nov 2014 (Local Time) from KONM Reporting Station
Clear Clear  
Wind Chill: 42°   Ceiling: Unl
Heat Index: 45°   Visibility: 10mi
Dew Point: 18°   Wind: 6mph
Humidity: 34%   Direction: 340°NNW
Pressure: 30.29"   Gusts: NA
Location:  33.8946°N, 106.565°W
Report Text: KONM 281655Z AUTO 34005KT 10SM CLR 07/M08 A3029 RMK AO2 T00711078
Loading
Personal Weather Stations






























Interactive Weather Map New forecast layout! Learn more

10-Day Weather Forecast

Advertisements
Track Severe Weather on mobile